createdAt,value
2022-09-07T00:01:04.865Z,101110.13
2022-09-07T00:03:32.148Z,101112.75
2022-09-07T00:05:59.934Z,101112.41
2022-09-07T00:08:28.041Z,101106.44
2022-09-07T00:11:01.939Z,101100.31
2022-09-07T00:13:33.759Z,101111.25
2022-09-07T00:16:12.614Z,101113.63
2022-09-07T00:18:45.223Z,101117.22
2022-09-07T00:21:14.192Z,101114.50
2022-09-07T00:23:41.322Z,101114.50
2022-09-07T00:26:17.596Z,101127.34
2022-09-07T00:28:45.230Z,101129.75
2022-09-07T00:31:24.624Z,101132.50
2022-09-07T00:33:53.789Z,101139.84
2022-09-07T00:36:22.070Z,101148.56
2022-09-07T00:38:49.647Z,101141.75
2022-09-07T00:41:18.320Z,101133.72
2022-09-07T00:43:55.389Z,101130.00
2022-09-07T00:46:32.310Z,101127.41
2022-09-07T00:49:10.364Z,101139.72
2022-09-07T00:51:50.945Z,101137.34
2022-09-07T00:54:42.313Z,101140.41
2022-09-07T00:57:09.876Z,101137.50
2022-09-07T00:59:43.380Z,101126.41
2022-09-07T01:02:12.311Z,101132.72
2022-09-07T01:04:39.803Z,101137.69
2022-09-07T01:07:07.060Z,101137.88
2022-09-07T01:09:35.381Z,101128.13
2022-09-07T01:12:03.491Z,101131.72
2022-09-07T01:14:40.426Z,101122.00
2022-09-07T01:17:16.630Z,101113.66
2022-09-07T01:20:43.943Z,101109.91
2022-09-07T01:23:50.330Z,101099.16
2022-09-07T01:27:02.287Z,101096.06
2022-09-07T01:29:52.606Z,101100.88
2022-09-07T01:32:28.561Z,101099.50
2022-09-07T01:34:55.662Z,101102.72
2022-09-07T01:37:40.623Z,101102.56
2022-09-07T01:41:05.792Z,101109.56
2022-09-07T01:43:43.382Z,101097.47
2022-09-07T01:46:42.226Z,101104.28
2022-09-07T01:49:21.343Z,101106.66
2022-09-07T01:51:54.652Z,101096.78
2022-09-07T01:54:33.888Z,101097.28
2022-09-07T01:57:10.381Z,101078.69
2022-09-07T01:59:44.643Z,101081.03
2022-09-07T02:02:19.762Z,101082.91
2022-09-07T02:05:07.478Z,101093.69
2022-09-07T02:07:53.512Z,101083.63
2022-09-07T02:10:28.877Z,101091.28
2022-09-07T02:13:08.188Z,101088.91
2022-09-07T02:16:03.354Z,101092.13
2022-09-07T02:18:37.511Z,101093.84
2022-09-07T02:21:07.852Z,101089.06
2022-09-07T02:23:44.196Z,101090.09
2022-09-07T02:26:18.299Z,101091.97
2022-09-07T02:28:45.716Z,101099.31
2022-09-07T02:31:13.567Z,101087.03
2022-09-07T02:33:41.949Z,101089.59
2022-09-07T02:36:09.978Z,101088.91
2022-09-07T02:38:37.157Z,101085.69
2022-09-07T02:41:05.086Z,101092.66
2022-09-07T02:43:32.736Z,101096.91
2022-09-07T02:46:46.279Z,101103.72
2022-09-07T02:50:14.832Z,101098.78
2022-09-07T02:53:38.701Z,101102.34
2022-09-07T02:56:34.459Z,101106.63
2022-09-07T03:02:25.737Z,101103.91
2022-09-07T03:05:32.342Z,101100.63
2022-09-07T03:08:05.549Z,101101.66
2022-09-07T03:10:33.298Z,101091.91
2022-09-07T03:13:00.233Z,101108.28
2022-09-07T03:15:28.297Z,101107.44
2022-09-07T03:17:55.400Z,101107.44
2022-09-07T03:20:23.422Z,101110.34
2022-09-07T03:22:52.249Z,101110.66
2022-09-07T03:25:19.891Z,101106.56
2022-09-07T03:27:46.977Z,101103.97
2022-09-07T03:30:14.571Z,101097.66
2022-09-07T03:32:42.147Z,101103.28
2022-09-07T03:35:10.220Z,101106.00
2022-09-07T03:37:38.457Z,101110.47
2022-09-07T03:40:09.962Z,101114.88
2022-09-07T03:42:37.523Z,101115.72
2022-09-07T03:45:07.163Z,101107.56
2022-09-07T03:47:37.833Z,101099.22
2022-09-07T03:50:06.125Z,101100.06
2022-09-07T03:52:35.221Z,101102.78
2022-09-07T03:55:02.295Z,101097.34
2022-09-07T03:57:29.277Z,101096.31
2022-09-07T03:59:56.246Z,101092.56
2022-09-07T04:02:23.240Z,101092.91
2022-09-07T04:04:50.283Z,101086.06
2022-09-07T04:07:17.341Z,101079.06
2022-09-07T04:09:44.362Z,101077.69
2022-09-07T04:12:11.343Z,101082.31
2022-09-07T04:14:38.263Z,101070.69
2022-09-07T04:17:05.576Z,101068.31
2022-09-07T04:19:32.522Z,101063.03
2022-09-07T04:21:59.718Z,101060.50
2022-09-07T04:24:26.801Z,101062.84
2022-09-07T04:26:53.691Z,101077.84
2022-09-07T04:29:20.656Z,101081.75
2022-09-07T04:31:47.786Z,101087.34
2022-09-07T04:34:14.978Z,101083.94
2022-09-07T04:36:42.107Z,101079.16
2022-09-07T04:39:11.397Z,101079.16
2022-09-07T04:41:38.325Z,101077.31
2022-09-07T04:44:05.404Z,101087.53
2022-09-07T04:46:37.521Z,101082.25
2022-09-07T04:49:08.526Z,101082.25
2022-09-07T04:51:36.833Z,101090.91
2022-09-07T04:54:04.545Z,101091.22
2022-09-07T04:56:33.677Z,101081.50
2022-09-07T04:59:03.084Z,101085.25
2022-09-07T05:01:31.401Z,101080.13
2022-09-07T05:04:03.532Z,101076.56
2022-09-07T05:06:31.107Z,101075.72
2022-09-07T05:08:59.180Z,101068.38
2022-09-07T05:11:29.403Z,101091.22
2022-09-07T05:13:59.105Z,101094.59
2022-09-07T05:16:27.509Z,101102.44
2022-09-07T05:18:58.175Z,101105.88
2022-09-07T05:21:28.646Z,101115.59
2022-09-07T05:23:58.089Z,101128.03
2022-09-07T05:26:29.347Z,101139.63
2022-09-07T05:31:43.703Z,101144.44
2022-09-07T05:36:58.059Z,101141.19
2022-09-07T05:39:25.393Z,101139.19
2022-09-07T05:41:52.586Z,101141.91
2022-09-07T05:47:07.513Z,101156.22
2022-09-07T05:49:34.673Z,101155.22
2022-09-07T05:52:01.732Z,101162.34
2022-09-07T05:54:28.851Z,101181.28
2022-09-07T05:56:55.896Z,101180.44
2022-09-07T05:59:22.954Z,101181.97
2022-09-07T06:01:50.719Z,101186.56
2022-09-07T06:04:18.208Z,101195.59
2022-09-07T06:06:59.160Z,101201.06
2022-09-07T06:09:31.830Z,101199.03
2022-09-07T06:11:58.934Z,101191.69
2022-09-07T06:14:25.907Z,101196.81
2022-09-07T06:16:53.751Z,101200.06
2022-09-07T06:19:21.385Z,101195.16
2022-09-07T06:21:48.797Z,101194.66
2022-09-07T06:24:15.938Z,101189.56
2022-09-07T06:26:43.118Z,101196.25
2022-09-07T06:29:10.560Z,101194.91
2022-09-07T06:34:26.418Z,101206.00
2022-09-07T06:36:53.359Z,101196.66
2022-09-07T06:39:20.350Z,101196.66
2022-09-07T06:42:02.584Z,101200.75
2022-09-07T06:44:31.640Z,101205.03
2022-09-07T06:49:26.983Z,101198.72
2022-09-07T06:51:53.963Z,101204.72
2022-09-07T06:57:10.863Z,101211.03
2022-09-07T06:59:38.598Z,101211.72
2022-09-07T07:02:06.865Z,101212.56
2022-09-07T07:04:39.501Z,101221.28
2022-09-07T07:07:13.707Z,101226.25
2022-09-07T07:09:41.946Z,101227.78
2022-09-07T07:12:10.710Z,101230.88
2022-09-07T07:14:40.978Z,101236.00
2022-09-07T07:17:11.194Z,101236.66
2022-09-07T07:19:38.625Z,101232.63
2022-09-07T07:24:53.202Z,101239.25
2022-09-07T07:27:22.303Z,101237.75
2022-09-07T07:29:49.984Z,101251.06
2022-09-07T07:32:17.426Z,101252.75
2022-09-07T07:34:44.831Z,101247.66
2022-09-07T07:37:11.854Z,101254.31
2022-09-07T07:42:26.342Z,101247.31
2022-09-07T07:47:40.273Z,101260.28
2022-09-07T07:55:43.817Z,101275.16
2022-09-07T07:58:11.011Z,101283.19
2022-09-07T08:00:53.788Z,101281.47
2022-09-07T08:03:23.171Z,101282.50
2022-09-07T08:05:50.406Z,101283.34
2022-09-07T08:08:17.419Z,101294.28
2022-09-07T08:10:46.037Z,101283.34
2022-09-07T08:13:13.290Z,101288.66
2022-09-07T08:15:46.364Z,101290.50
2022-09-07T08:18:16.689Z,101297.00
2022-09-07T08:20:43.924Z,101288.66
2022-09-07T08:23:11.615Z,101289.31
2022-09-07T08:25:38.707Z,101280.47
2022-09-07T08:28:06.572Z,101282.16
2022-09-07T08:30:33.535Z,101278.56
2022-09-07T08:33:00.525Z,101273.97
2022-09-07T08:35:27.619Z,101267.44
2022-09-07T08:37:54.648Z,101263.03
2022-09-07T08:40:25.563Z,101262.16
2022-09-07T08:43:08.393Z,101261.16
2022-09-07T08:45:41.800Z,101271.75
2022-09-07T08:48:15.171Z,101274.28
2022-09-07T08:50:53.954Z,101275.16
2022-09-07T08:53:23.080Z,101257.91
2022-09-07T08:55:57.062Z,101267.28
2022-09-07T08:58:49.814Z,101265.75
2022-09-07T09:01:41.595Z,101267.47
2022-09-07T09:04:25.658Z,101265.59
2022-09-07T09:07:29.933Z,101270.72
2022-09-07T09:10:30.532Z,101267.44
2022-09-07T09:13:09.681Z,101266.25
2022-09-07T09:15:53.261Z,101266.09
2022-09-07T09:18:42.482Z,101258.59
2022-09-07T09:21:18.816Z,101249.91
2022-09-07T09:23:50.090Z,101240.66
2022-09-07T09:26:26.871Z,101248.31
2022-09-07T09:28:55.160Z,101249.88
2022-09-07T09:31:26.806Z,101233.47
2022-09-07T09:34:09.660Z,101231.22
2022-09-07T09:36:44.418Z,101221.84
2022-09-07T09:39:38.044Z,101225.06
2022-09-07T09:42:11.460Z,101217.56
2022-09-07T09:44:39.484Z,101209.84
2022-09-07T09:49:54.446Z,101213.78
2022-09-07T09:52:29.708Z,101212.53
2022-09-07T09:55:17.236Z,101213.94
2022-09-07T10:01:21.223Z,101201.94
2022-09-07T10:06:18.982Z,101198.00
2022-09-07T10:09:04.197Z,101194.25
2022-09-07T10:14:45.458Z,101181.94
2022-09-07T10:17:35.864Z,101175.91
2022-09-07T10:20:37.540Z,101177.47
2022-09-07T10:23:06.816Z,101184.47
2022-09-07T10:25:44.232Z,101192.97
2022-09-07T10:28:14.390Z,101196.56
2022-09-07T10:31:13.927Z,101190.06
2022-09-07T10:34:27.477Z,101187.84
2022-09-07T10:37:05.849Z,101198.44
2022-09-07T10:39:43.633Z,101182.50
2022-09-07T10:42:29.234Z,101185.09
2022-09-07T10:45:17.178Z,101175.72
2022-09-07T10:47:57.536Z,101175.84
2022-09-07T10:50:39.665Z,101178.94
2022-09-07T10:53:40.116Z,101180.63
2022-09-07T10:56:26.209Z,101183.88
2022-09-07T11:03:28.132Z,101186.38
2022-09-07T11:06:16.599Z,101175.75
2022-09-07T11:09:36.756Z,101174.03
2022-09-07T11:12:09.768Z,101161.56
2022-09-07T11:14:45.352Z,101166.31
2022-09-07T11:17:25.612Z,101172.94
2022-09-07T11:20:12.120Z,101164.84
2022-09-07T11:22:43.398Z,101161.59
2022-09-07T11:25:32.645Z,101160.66
2022-09-07T11:28:12.635Z,101169.38
2022-09-07T11:31:00.322Z,101163.88
2022-09-07T11:33:42.149Z,101170.41
2022-09-07T11:36:15.942Z,101161.09
2022-09-07T11:38:54.430Z,101159.22
2022-09-07T11:41:38.607Z,101162.94
2022-09-07T11:44:43.699Z,101164.38
2022-09-07T11:47:29.615Z,101166.38
2022-09-07T11:49:59.340Z,101165.47
2022-09-07T11:52:40.136Z,101173.59
2022-09-07T11:55:25.366Z,101157.75
2022-09-07T11:58:44.468Z,101157.56
2022-09-07T12:01:45.223Z,101158.25
2022-09-07T12:04:46.861Z,101150.63
2022-09-07T12:07:33.609Z,101147.22
2022-09-07T12:10:42.128Z,101143.59
2022-09-07T12:13:46.316Z,101150.50
2022-09-07T12:16:34.834Z,101144.56
2022-09-07T12:19:02.170Z,101146.69
2022-09-07T12:22:03.589Z,101146.41
2022-09-07T12:24:45.978Z,101142.34
2022-09-07T12:27:33.678Z,101134.94
2022-09-07T12:30:03.713Z,101135.03
2022-09-07T12:32:58.229Z,101126.59
2022-09-07T12:35:28.535Z,101123.16
2022-09-07T12:41:41.061Z,101117.63
2022-09-07T12:44:17.503Z,101112.34
2022-09-07T12:46:48.467Z,101097.38
2022-09-07T12:49:52.778Z,101098.75
2022-09-07T12:52:45.616Z,101090.06
2022-09-07T12:58:34.846Z,101082.66
2022-09-07T13:01:15.504Z,101079.47
2022-09-07T13:03:52.413Z,101078.84
2022-09-07T13:07:02.428Z,101069.78
2022-09-07T13:09:38.157Z,101053.28
2022-09-07T13:16:06.435Z,101051.69
2022-09-07T13:18:37.703Z,101049.00
2022-09-07T13:21:07.893Z,101047.59
2022-09-07T13:23:51.375Z,101045.13
2022-09-07T13:26:55.161Z,101042.53
2022-09-07T13:29:46.425Z,101052.69
2022-09-07T13:35:24.150Z,101034.91
2022-09-07T13:38:02.362Z,101040.38
2022-09-07T13:40:34.345Z,101032.31
2022-09-07T13:43:04.659Z,101029.38
2022-09-07T13:45:55.694Z,101025.34
2022-09-07T13:48:58.346Z,101026.44
2022-09-07T13:51:38.334Z,101017.00
2022-09-07T13:54:14.130Z,101022.78
2022-09-07T13:56:55.729Z,101014.75
2022-09-07T13:59:27.685Z,101019.03
2022-09-07T14:01:57.221Z,101017.38
2022-09-07T14:04:35.637Z,101025.63
2022-09-07T14:07:13.914Z,101031.56
2022-09-07T14:09:41.313Z,101028.41
2022-09-07T14:12:20.897Z,101030.16
2022-09-07T14:15:25.599Z,101018.13
2022-09-07T14:18:03.979Z,101017.91
2022-09-07T14:20:32.580Z,101008.38
2022-09-07T14:23:00.286Z,101007.75
2022-09-07T14:25:27.734Z,101004.56
2022-09-07T14:27:56.323Z,101005.88
2022-09-07T14:30:32.071Z,101000.34
2022-09-07T14:33:17.333Z,100989.97
2022-09-07T14:35:44.438Z,100987.41
2022-09-07T14:41:21.427Z,100975.16
2022-09-07T14:43:55.251Z,100970.47
2022-09-07T14:46:30.130Z,100950.34
2022-09-07T14:49:04.291Z,100950.38
2022-09-07T14:51:36.436Z,100956.91
2022-09-07T14:54:08.050Z,100948.66
2022-09-07T14:56:40.908Z,100955.84
2022-09-07T14:59:43.524Z,100957.97
2022-09-07T15:02:22.136Z,100961.56
2022-09-07T15:05:24.009Z,100953.94
2022-09-07T15:08:00.911Z,100953.50
2022-09-07T15:13:36.946Z,100950.75
2022-09-07T15:16:07.423Z,100933.63
2022-09-07T15:19:02.474Z,100940.16
2022-09-07T15:21:36.625Z,100938.84
2022-09-07T15:24:04.057Z,100939.09
2022-09-07T15:29:28.575Z,100949.66
2022-09-07T15:32:03.496Z,100948.78
2022-09-07T15:34:32.476Z,100943.69
2022-09-07T15:37:00.877Z,100945.19
2022-09-07T15:39:29.884Z,100947.31
2022-09-07T15:41:59.042Z,100947.50
2022-09-07T15:44:28.611Z,100942.41
2022-09-07T15:49:49.490Z,100939.88
2022-09-07T15:52:18.243Z,100931.84
2022-09-07T15:54:45.363Z,100928.03
2022-09-07T15:59:59.525Z,100915.56
2022-09-07T16:05:13.796Z,100904.13
2022-09-07T16:10:31.610Z,100893.09
2022-09-07T16:13:01.836Z,100889.69
2022-09-07T16:15:31.496Z,100888.44
2022-09-07T16:17:59.119Z,100885.25
2022-09-07T16:20:32.038Z,100887.13
2022-09-07T16:23:16.256Z,100891.34
2022-09-07T16:25:58.413Z,100890.28
2022-09-07T16:28:26.306Z,100888.56
2022-09-07T16:30:54.236Z,100893.44
2022-09-07T16:33:21.401Z,100885.78
2022-09-07T16:36:04.301Z,100877.78
2022-09-07T16:38:47.580Z,100872.88
2022-09-07T16:41:26.662Z,100865.88
2022-09-07T16:43:54.783Z,100868.84
2022-09-07T16:46:26.304Z,100872.41
2022-09-07T16:48:54.261Z,100878.31
2022-09-07T16:51:22.954Z,100873.88
2022-09-07T16:53:53.292Z,100878.72
2022-09-07T16:56:24.391Z,100876.22
2022-09-07T16:58:56.008Z,100866.47
2022-09-07T17:01:27.957Z,100871.31
2022-09-07T17:03:56.598Z,100865.19
2022-09-07T17:06:27.294Z,100871.09
2022-09-07T17:08:55.172Z,100868.53
2022-09-07T17:11:26.479Z,100866.84
2022-09-07T17:13:54.048Z,100860.91
2022-09-07T17:16:28.224Z,100864.72
2022-09-07T17:21:43.311Z,100869.13
2022-09-07T17:24:11.885Z,100861.91
2022-09-07T17:26:42.243Z,100870.59
2022-09-07T17:29:09.746Z,100872.84
2022-09-07T17:34:25.551Z,100868.19
2022-09-07T17:36:52.757Z,100863.94
2022-09-07T17:39:19.983Z,100867.72
2022-09-07T17:41:49.314Z,100860.75
2022-09-07T17:44:16.335Z,100855.44
2022-09-07T17:46:43.535Z,100855.84
2022-09-07T17:49:16.632Z,100856.66
2022-09-07T17:51:45.015Z,100855.78
2022-09-07T17:54:17.322Z,100865.69
2022-09-07T17:56:45.272Z,100861.66
2022-09-07T18:01:59.907Z,100878.09
2022-09-07T18:04:28.205Z,100880.22
2022-09-07T18:06:55.575Z,100888.63
2022-09-07T18:09:22.815Z,100885.66
2022-09-07T18:11:50.495Z,100889.66
2022-09-07T18:14:19.053Z,100887.28
2022-09-07T18:16:49.302Z,100884.94
2022-09-07T18:19:18.300Z,100895.44
2022-09-07T18:21:45.716Z,100895.00
2022-09-07T18:24:17.837Z,100897.28
2022-09-07T18:26:50.891Z,100883.31
2022-09-07T18:29:29.329Z,100887.28
2022-09-07T18:31:58.937Z,100900.56
2022-09-07T18:34:26.263Z,100906.25
2022-09-07T18:36:53.849Z,100899.03
2022-09-07T18:39:23.073Z,100889.97
2022-09-07T18:41:50.314Z,100881.28
2022-09-07T18:47:06.319Z,100873.47
2022-09-07T18:49:33.223Z,100872.63
2022-09-07T18:54:47.310Z,100876.41
2022-09-07T18:57:15.497Z,100880.19
2022-09-07T18:59:42.559Z,100884.66
2022-09-07T19:02:10.801Z,100884.81
2022-09-07T19:07:29.542Z,100888.41
2022-09-07T19:09:57.834Z,100893.06
2022-09-07T19:12:24.927Z,100909.50
2022-09-07T19:14:51.859Z,100915.84
2022-09-07T19:17:19.387Z,100923.88
2022-09-07T19:19:46.379Z,100916.69
2022-09-07T19:22:13.294Z,100906.13
2022-09-07T19:24:40.167Z,100896.84
2022-09-07T19:27:07.585Z,100896.00
2022-09-07T19:29:34.689Z,100899.59
2022-09-07T19:32:05.416Z,100884.81
2022-09-07T19:34:42.158Z,100875.97
2022-09-07T19:37:11.712Z,100875.97
2022-09-07T19:39:38.891Z,100883.53
2022-09-07T19:42:07.798Z,100896.41
2022-09-07T19:44:35.111Z,100894.50
2022-09-07T19:47:02.150Z,100890.25
2022-09-07T19:49:30.259Z,100883.25
2022-09-07T19:51:57.210Z,100881.56
2022-09-07T19:54:24.466Z,100872.69
2022-09-07T19:56:51.404Z,100872.88
2022-09-07T19:59:19.587Z,100876.47
2022-09-07T20:01:48.470Z,100864.00
2022-09-07T20:04:20.622Z,100869.69
2022-09-07T20:06:50.242Z,100872.63
2022-09-07T20:09:19.956Z,100869.25
2022-09-07T20:11:48.182Z,100870.25
2022-09-07T20:14:16.728Z,100865.00
2022-09-07T20:16:43.976Z,100859.69
2022-09-07T20:19:14.621Z,100855.66
2022-09-07T20:21:43.057Z,100849.50
2022-09-07T20:24:14.443Z,100854.31
2022-09-07T20:26:41.736Z,100854.50
2022-09-07T20:29:26.902Z,100842.91
2022-09-07T20:31:57.680Z,100843.47
2022-09-07T20:34:25.880Z,100836.28
2022-09-07T20:36:53.199Z,100839.25
2022-09-07T20:39:21.349Z,100838.38
2022-09-07T20:41:48.492Z,100829.50
2022-09-07T20:44:15.887Z,100824.88
2022-09-07T20:46:43.642Z,100811.38
2022-09-07T20:49:11.163Z,100815.13
2022-09-07T20:51:38.851Z,100809.03
2022-09-07T20:54:07.079Z,100818.28
2022-09-07T20:56:33.994Z,100826.50
2022-09-07T20:59:03.623Z,100830.06
2022-09-07T21:01:35.872Z,100824.59
2022-09-07T21:04:04.163Z,100821.84
2022-09-07T21:06:32.018Z,100820.38
2022-09-07T21:09:02.859Z,100827.72
2022-09-07T21:11:35.425Z,100822.44
2022-09-07T21:14:10.290Z,100812.53
2022-09-07T21:16:38.012Z,100811.69
2022-09-07T21:19:10.938Z,100811.03
2022-09-07T21:21:41.800Z,100806.78
2022-09-07T21:24:19.692Z,100796.88
2022-09-07T21:26:49.027Z,100796.88
2022-09-07T21:29:22.956Z,100801.69
2022-09-07T21:31:53.114Z,100796.41
2022-09-07T21:34:21.363Z,100787.34
2022-09-07T21:36:48.286Z,100777.63
2022-09-07T21:39:16.335Z,100784.34
2022-09-07T21:41:45.208Z,100769.97
2022-09-07T21:44:15.736Z,100769.53
2022-09-07T21:46:44.046Z,100753.09
2022-09-07T21:49:11.784Z,100751.41
2022-09-07T21:51:38.875Z,100755.19
2022-09-07T21:54:06.125Z,100752.44
2022-09-07T21:56:33.217Z,100748.00
2022-09-07T21:59:01.997Z,100746.50
2022-09-07T22:01:30.772Z,100739.31
2022-09-07T22:04:04.042Z,100753.22
2022-09-07T22:06:32.421Z,100766.47
2022-09-07T22:09:01.983Z,100753.59
2022-09-07T22:11:29.822Z,100748.31
2022-09-07T22:14:00.482Z,100740.31
2022-09-07T22:16:27.720Z,100750.41
2022-09-07T22:18:55.069Z,100734.13
2022-09-07T22:21:27.890Z,100734.34
2022-09-07T22:23:58.352Z,100732.63
2022-09-07T22:26:28.636Z,100736.41
2022-09-07T22:28:56.147Z,100730.25
2022-09-07T22:31:33.649Z,100735.09
2022-09-07T22:34:04.721Z,100733.59
2022-09-07T22:36:44.260Z,100738.22
2022-09-07T22:39:15.898Z,100740.50
2022-09-07T22:41:44.079Z,100740.88
2022-09-07T22:44:14.928Z,100733.72
2022-09-07T22:46:43.719Z,100738.53
2022-09-07T22:49:16.209Z,100741.44
2022-09-07T22:51:43.907Z,100742.72
2022-09-07T22:54:11.209Z,100746.47
2022-09-07T22:56:39.652Z,100751.31
2022-09-07T22:59:09.029Z,100748.28
2022-09-07T23:01:37.246Z,100755.84
2022-09-07T23:04:06.167Z,100749.88
2022-09-07T23:06:42.018Z,100754.91
2022-09-07T23:09:16.556Z,100760.97
2022-09-07T23:11:45.896Z,100762.00
2022-09-07T23:14:22.052Z,100770.59
2022-09-07T23:16:49.666Z,100761.25
2022-09-07T23:19:18.565Z,100755.94
2022-09-07T23:21:46.142Z,100760.47
2022-09-07T23:24:17.272Z,100772.16
2022-09-07T23:26:44.719Z,100774.25
2022-09-07T23:29:13.783Z,100772.72
2022-09-07T23:31:42.182Z,100769.53
2022-09-07T23:34:09.745Z,100763.38
2022-09-07T23:36:37.408Z,100754.91
2022-09-07T23:39:04.899Z,100752.34
2022-09-07T23:41:31.955Z,100747.06
2022-09-07T23:43:59.053Z,100746.59
2022-09-07T23:46:26.332Z,100757.53
2022-09-07T23:48:53.469Z,100758.75
2022-09-07T23:51:24.202Z,100759.97
2022-09-07T23:53:52.945Z,100761.03
2022-09-07T23:56:21.241Z,100755.72
2022-09-07T23:58:48.139Z,100744.88
